Time;durP1;ratioP1;P1;durP2;ratioP2;P2;SDS_P1;SDS_P2;PMS_P1;PMS_P2;Temp;Humidity;BMP_temperature;BMP_pressure;BME280_temperature;BME280_humidity;BME280_pressure;Samples;Min_cycle;Max_cycle;Signal;HPM_P1;HPM_P2
2022/08/26 00:00:31;;;;;;;5.28;4.78;;;20.50;99.90;;;;;;4984169;28;20018;-59
2022/08/26 00:02:58;;;;;;;8.52;5.60;;;20.50;99.90;;;;;;4989021;28;20462;-58
2022/08/26 00:05:23;;;;;;;7.80;5.07;;;20.50;99.90;;;;;;4985646;28;20018;-59
2022/08/26 00:07:49;;;;;;;6.15;5.07;;;20.50;99.90;;;;;;4988268;28;20030;-60
2022/08/26 00:10:16;;;;;;;6.85;5.70;;;20.50;99.90;;;;;;4989934;28;20037;-57
2022/08/26 00:12:41;;;;;;;6.25;5.65;;;20.50;99.90;;;;;;4987246;28;20018;-59
2022/08/26 00:15:09;;;;;;;5.60;5.00;;;20.50;99.90;;;;;;4989742;28;20041;-59
2022/08/26 00:17:35;;;;;;;7.03;5.03;;;20.50;99.90;;;;;;4986471;28;20482;-57
2022/08/26 00:20:02;;;;;;;9.10;5.85;;;20.50;99.90;;;;;;4988886;28;20088;-60
2022/08/26 00:22:28;;;;;;;9.35;5.43;;;20.50;99.90;;;;;;4984347;28;20038;-58
2022/08/26 00:24:53;;;;;;;8.75;5.28;;;20.50;99.90;;;;;;4988021;28;20068;-59
2022/08/26 00:27:19;;;;;;;6.22;5.40;;;20.50;99.90;;;;;;4990662;28;20545;-59
2022/08/26 00:29:45;;;;;;;6.05;5.38;;;20.40;99.90;;;;;;4987556;28;20026;-60
2022/08/26 00:32:11;;;;;;;8.90;5.95;;;20.40;99.90;;;;;;4989264;28;20034;-59
2022/08/26 00:34:37;;;;;;;8.02;5.55;;;20.50;99.90;;;;;;4986252;28;20034;-60
2022/08/26 00:37:04;;;;;;;5.70;5.05;;;20.40;99.90;;;;;;4987354;28;20026;-58
2022/08/26 00:39:30;;;;;;;5.82;4.93;;;20.40;99.90;;;;;;4985618;28;20022;-60
2022/08/26 00:41:56;;;;;;;8.13;5.60;;;20.40;99.90;;;;;;4987152;28;20105;-59
2022/08/26 00:44:21;;;;;;;5.80;5.20;;;20.40;99.90;;;;;;4990112;28;20107;-58
2022/08/26 00:46:52;;;;;;;11.68;5.75;;;20.40;99.90;;;;;;4987180;28;20030;-57
2022/08/26 00:49:29;;;;;;;9.27;5.82;;;20.40;99.90;;;;;;4987248;28;20027;-58
2022/08/26 00:51:57;;;;;;;11.23;5.53;;;20.30;99.90;;;;;;4984896;28;20168;-59
2022/08/26 00:54:25;;;;;;;6.20;5.40;;;20.30;99.90;;;;;;4989339;28;20097;-59
2022/08/26 00:56:57;;;;;;;8.73;5.78;;;20.30;99.90;;;;;;4984823;28;20030;-58
2022/08/26 00:59:23;;;;;;;6.80;6.20;;;20.30;99.90;;;;;;4985918;28;20026;-59
2022/08/26 01:01:50;;;;;;;6.30;5.72;;;20.30;99.90;;;;;;4982610;28;20447;-59
2022/08/26 01:04:19;;;;;;;7.40;5.35;;;20.30;99.90;;;;;;4984848;28;20174;-60
2022/08/26 01:06:48;;;;;;;6.20;5.03;;;20.30;99.90;;;;;;4987045;28;20030;-60
2022/08/26 01:09:13;;;;;;;9.15;5.53;;;20.30;99.90;;;;;;4990043;28;20054;-58
2022/08/26 01:11:40;;;;;;;7.40;6.20;;;20.30;99.90;;;;;;4986654;28;20116;-60
2022/08/26 01:14:06;;;;;;;7.97;5.53;;;20.30;99.90;;;;;;4989603;28;20475;-59
2022/08/26 01:16:33;;;;;;;7.47;5.75;;;20.20;99.90;;;;;;4985864;28;20095;-59
2022/08/26 01:19:25;;;;;;;6.28;5.38;;;20.20;99.90;;;;;;4987089;28;20031;-59
2022/08/26 01:22:04;;;;;;;6.20;5.60;;;20.20;99.90;;;;;;4989263;28;20377;-59
2022/08/26 01:24:30;;;;;;;8.20;5.53;;;20.20;99.90;;;;;;4993936;28;20019;-58
2022/08/26 01:27:00;;;;;;;7.03;5.25;;;20.20;99.90;;;;;;4996422;28;20026;-59
2022/08/26 01:29:29;;;;;;;8.93;6.20;;;20.20;99.90;;;;;;4993231;28;20019;-60
2022/08/26 01:31:56;;;;;;;8.27;5.10;;;20.20;99.90;;;;;;4994935;28;20040;-59
2022/08/26 01:34:28;;;;;;;8.95;5.65;;;20.20;99.90;;;;;;4992072;28;20505;-59
2022/08/26 01:37:06;;;;;;;5.70;5.20;;;20.20;99.90;;;;;;4994480;28;20034;-59
2022/08/26 01:39:33;;;;;;;6.25;5.65;;;20.20;99.90;;;;;;4991521;28;20014;-58
2022/08/26 01:42:00;;;;;;;9.32;5.35;;;20.10;99.90;;;;;;4992908;28;20037;-60
2022/08/26 01:44:31;;;;;;;8.95;5.25;;;20.10;99.90;;;;;;4996426;28;20023;-60
2022/08/26 01:46:58;;;;;;;8.13;5.53;;;20.10;99.90;;;;;;4991951;28;20038;-60
2022/08/26 01:49:25;;;;;;;7.53;5.80;;;20.10;99.90;;;;;;4996360;28;20549;-58
2022/08/26 01:51:54;;;;;;;7.38;5.60;;;20.10;99.90;;;;;;4991810;28;20026;-58
2022/08/26 01:54:20;;;;;;;8.55;6.10;;;20.10;99.90;;;;;;4995170;28;20014;-59
2022/08/26 01:56:46;;;;;;;6.95;4.90;;;20.10;99.90;;;;;;4991030;28;20766;-58
2022/08/26 01:59:15;;;;;;;6.50;5.30;;;20.00;99.90;;;;;;4993299;28;20022;-59
2022/08/26 02:01:41;;;;;;;6.35;5.00;;;20.00;99.90;;;;;;4990076;28;20434;-58
2022/08/26 02:04:36;;;;;;;11.57;5.82;;;20.00;99.90;;;;;;4993511;28;20053;-60
2022/08/26 02:07:05;;;;;;;6.70;6.00;;;20.00;99.90;;;;;;4992123;28;20498;-59
2022/08/26 02:09:31;;;;;;;7.97;5.60;;;20.00;99.90;;;;;;4996292;28;20437;-60
2022/08/26 02:11:59;;;;;;;9.80;5.80;;;19.90;99.90;;;;;;4988222;28;20027;-58
2022/08/26 02:14:28;;;;;;;7.28;5.00;;;19.90;99.90;;;;;;4993970;28;20031;-58
2022/08/26 02:16:54;;;;;;;7.70;5.72;;;19.90;99.90;;;;;;4993252;28;20033;-58
2022/08/26 02:19:28;;;;;;;6.72;4.97;;;19.90;99.90;;;;;;4992516;28;20030;-57
2022/08/26 02:21:54;;;;;;;7.38;5.18;;;19.90;99.90;;;;;;4994733;28;20033;-57
2022/08/26 02:24:26;;;;;;;6.65;5.72;;;19.90;99.90;;;;;;4990821;28;20069;-58
2022/08/26 02:26:52;;;;;;;7.82;5.60;;;19.90;99.90;;;;;;4995375;28;20022;-58
2022/08/26 02:29:36;;;;;;;7.15;5.88;;;19.80;99.90;;;;;;4992439;28;20451;-58
2022/08/26 02:32:02;;;;;;;9.48;6.22;;;19.80;99.90;;;;;;4991231;28;20082;-58
2022/08/26 02:34:30;;;;;;;6.60;6.00;;;19.80;99.90;;;;;;4986982;28;20371;-57
2022/08/26 02:36:57;;;;;;;9.68;5.75;;;19.70;99.90;;;;;;4989858;28;20091;-58
2022/08/26 02:39:23;;;;;;;8.25;6.22;;;19.70;99.90;;;;;;4992521;28;20482;-59
2022/08/26 02:41:49;;;;;;;7.30;5.60;;;19.70;99.90;;;;;;4971330;28;20104;-59
2022/08/26 02:44:14;;;;;;;9.38;6.10;;;19.70;99.90;;;;;;4991621;28;20081;-58
2022/08/26 02:46:41;;;;;;;8.00;5.32;;;19.70;99.90;;;;;;4988114;28;20027;-58
2022/08/26 02:49:06;;;;;;;9.02;5.80;;;19.70;99.90;;;;;;4990237;28;20030;-58
2022/08/26 02:51:32;;;;;;;6.97;6.03;;;19.70;99.90;;;;;;4986468;28;20026;-59
2022/08/26 02:53:58;;;;;;;6.90;5.15;;;19.70;99.90;;;;;;4989417;28;20022;-57
2022/08/26 02:56:23;;;;;;;7.40;5.45;;;19.70;99.90;;;;;;4991528;28;20077;-58
2022/08/26 02:58:49;;;;;;;6.40;5.80;;;19.70;99.90;;;;;;4988395;28;20109;-59
2022/08/26 03:01:20;;;;;;;12.15;6.65;;;19.70;99.90;;;;;;4990557;28;20101;-57
2022/08/26 03:03:46;;;;;;;9.90;5.78;;;19.70;99.90;;;;;;4987603;28;20019;-59
2022/08/26 03:06:11;;;;;;;6.93;5.97;;;19.60;99.90;;;;;;4989696;28;20049;-59
2022/08/26 03:08:38;;;;;;;9.07;6.00;;;19.70;99.90;;;;;;4984979;28;20113;-59
2022/08/26 03:11:03;;;;;;;7.85;5.78;;;19.60;99.90;;;;;;4988672;28;20022;-57
2022/08/26 03:13:29;;;;;;;9.80;5.88;;;19.60;99.90;;;;;;4990807;28;20405;-56
2022/08/26 03:15:55;;;;;;;9.05;5.55;;;19.60;99.90;;;;;;4987422;28;20034;-56
2022/08/26 03:18:21;;;;;;;8.52;6.47;;;19.60;99.90;;;;;;4990123;28;20022;-59
2022/08/26 03:20:46;;;;;;;9.77;5.88;;;19.60;99.90;;;;;;4984785;28;20033;-59
2022/08/26 03:23:12;;;;;;;8.95;5.82;;;19.60;99.90;;;;;;4987579;28;20482;-59
2022/08/26 03:25:38;;;;;;;10.75;6.65;;;19.60;99.90;;;;;;4990682;28;20072;-60
2022/08/26 03:28:04;;;;;;;7.63;6.20;;;19.60;99.90;;;;;;4986140;28;20482;-61
2022/08/26 03:30:40;;;;;;;6.60;6.00;;;19.60;99.90;;;;;;4989559;28;20050;-59
2022/08/26 03:33:07;;;;;;;12.40;6.45;;;19.60;99.90;;;;;;4986467;28;20022;-57
2022/08/26 03:35:33;;;;;;;8.50;5.78;;;19.60;99.90;;;;;;4988923;28;20027;-57
2022/08/26 03:38:00;;;;;;;7.75;5.95;;;19.50;99.90;;;;;;4991200;28;20018;-57
2022/08/26 03:40:26;;;;;;;7.22;6.45;;;19.50;99.90;;;;;;4988141;28;20022;-59
2022/08/26 03:42:52;;;;;;;7.72;6.05;;;19.50;99.90;;;;;;4989851;28;20049;-56
2022/08/26 03:45:19;;;;;;;7.43;5.57;;;19.40;99.90;;;;;;4986742;28;20019;-57
2022/08/26 03:47:46;;;;;;;7.68;6.05;;;19.40;99.90;;;;;;4987988;28;20034;-57
2022/08/26 03:50:15;;;;;;;8.70;5.97;;;19.40;99.90;;;;;;4985787;28;20101;-59
2022/08/26 03:52:41;;;;;;;6.72;5.72;;;19.40;99.90;;;;;;4988125;28;20109;-58
2022/08/26 03:55:08;;;;;;;9.73;6.85;;;19.40;99.90;;;;;;4990577;28;20049;-58
2022/08/26 03:57:34;;;;;;;7.32;5.90;;;19.40;99.90;;;;;;4987874;28;20092;-58
2022/08/26 03:59:59;;;;;;;7.43;6.28;;;19.40;99.90;;;;;;4988329;28;20477;-58
2022/08/26 04:02:25;;;;;;;9.25;6.60;;;19.40;99.90;;;;;;4986263;28;20019;-58
2022/08/26 04:04:51;;;;;;;9.20;5.97;;;19.40;99.90;;;;;;4988591;28;20254;-59
2022/08/26 04:07:17;;;;;;;8.95;6.05;;;19.40;99.90;;;;;;4985913;28;20030;-58
2022/08/26 04:09:42;;;;;;;9.23;6.30;;;19.40;99.90;;;;;;4988148;28;20025;-60
2022/08/26 04:12:09;;;;;;;7.88;5.25;;;19.40;99.90;;;;;;4990898;28;20090;-55
2022/08/26 04:14:36;;;;;;;8.60;6.32;;;19.40;99.90;;;;;;4987198;28;20018;-59
2022/08/26 04:17:03;;;;;;;8.10;6.22;;;19.40;99.90;;;;;;4989125;28;20116;-59
2022/08/26 04:19:31;;;;;;;8.68;6.43;;;19.40;99.90;;;;;;4986227;28;20025;-59
2022/08/26 04:21:57;;;;;;;10.80;6.93;;;19.40;99.90;;;;;;4984655;28;20025;-59
2022/08/26 04:24:24;;;;;;;6.70;6.00;;;19.30;99.90;;;;;;4986939;28;20541;-59
2022/08/26 04:26:50;;;;;;;8.05;7.03;;;19.30;99.90;;;;;;4988680;28;20042;-58
2022/08/26 04:29:20;;;;;;;8.82;6.03;;;19.30;99.90;;;;;;4984612;28;20023;-57
2022/08/26 04:31:49;;;;;;;7.70;6.90;;;19.30;99.90;;;;;;4989947;28;20034;-59
2022/08/26 04:34:16;;;;;;;8.20;7.20;;;19.30;99.90;;;;;;4982617;28;20030;-59
2022/08/26 04:36:42;;;;;;;8.77;6.72;;;19.30;99.90;;;;;;4989935;28;20471;-59
2022/08/26 04:39:11;;;;;;;6.80;6.20;;;19.30;99.90;;;;;;4987703;28;20031;-58
2022/08/26 04:41:38;;;;;;;9.35;7.18;;;19.30;99.90;;;;;;4988462;28;20057;-55
2022/08/26 04:44:05;;;;;;;10.25;6.97;;;19.30;99.90;;;;;;4988124;28;20022;-57
2022/08/26 04:46:31;;;;;;;9.25;6.70;;;19.30;99.90;;;;;;4986307;28;20025;-57
2022/08/26 04:48:57;;;;;;;7.75;5.65;;;19.30;99.90;;;;;;4989282;28;20510;-59
2022/08/26 04:51:26;;;;;;;8.38;6.80;;;19.30;99.90;;;;;;4983160;28;20221;-59
2022/08/26 04:53:56;;;;;;;11.90;6.38;;;19.30;99.90;;;;;;4989732;28;20033;-57
2022/08/26 04:56:28;;;;;;;8.10;7.00;;;19.30;99.90;;;;;;4985930;28;20030;-58
2022/08/26 04:58:53;;;;;;;8.60;7.20;;;19.30;99.90;;;;;;4989217;28;20041;-59
2022/08/26 05:01:20;;;;;;;13.18;7.30;;;19.30;99.90;;;;;;4985826;28;20134;-57
2022/08/26 05:03:47;;;;;;;10.93;7.38;;;19.30;99.90;;;;;;4988278;28;20035;-59
2022/08/26 05:06:13;;;;;;;11.73;6.40;;;19.30;99.90;;;;;;4986604;28;20050;-60
2022/08/26 05:08:39;;;;;;;8.45;6.78;;;19.30;99.90;;;;;;4985367;28;20030;-57
2022/08/26 05:11:05;;;;;;;10.77;7.32;;;19.30;99.90;;;;;;4989634;28;20026;-53
2022/08/26 05:13:33;;;;;;;10.05;6.60;;;19.40;99.90;;;;;;4986406;28;20518;-58
2022/08/26 05:16:05;;;;;;;9.68;7.10;;;19.40;99.90;;;;;;4988874;28;20105;-58
2022/08/26 05:18:32;;;;;;;8.63;6.72;;;19.40;99.90;;;;;;4985612;28;20026;-57
2022/08/26 05:20:59;;;;;;;9.25;6.95;;;19.40;99.90;;;;;;4985743;28;20014;-57
2022/08/26 05:23:24;;;;;;;12.13;7.32;;;19.40;99.90;;;;;;4986416;28;20425;-59
2022/08/26 05:25:52;;;;;;;10.93;6.80;;;19.50;99.90;;;;;;4988839;28;20033;-58
2022/08/26 05:28:20;;;;;;;10.25;7.20;;;19.50;99.90;;;;;;4984464;28;20631;-59
2022/08/26 05:30:48;;;;;;;11.20;7.63;;;19.50;99.90;;;;;;4987887;28;20109;-57
2022/08/26 05:33:15;;;;;;;11.20;7.45;;;19.50;99.90;;;;;;4984961;28;20022;-58
2022/08/26 05:35:42;;;;;;;9.80;7.75;;;19.50;99.90;;;;;;5002785;23;20046;-47
2022/08/26 05:38:11;;;;;;;9.77;7.07;;;19.50;99.90;;;;;;4989465;28;20426;-50
2022/08/26 05:40:40;;;;;;;9.77;7.60;;;19.60;99.90;;;;;;4978746;28;20491;-49
2022/08/26 05:43:09;;;;;;;10.35;8.05;;;19.60;99.90;;;;;;4986960;28;20536;-47
2022/08/26 05:45:49;;;;;;;11.23;8.40;;;19.70;99.90;;;;;;4969122;28;20023;-48
2022/08/26 05:48:19;;;;;;;10.82;7.80;;;19.70;99.90;;;;;;4968495;28;20066;-47
2022/08/26 05:50:50;;;;;;;10.88;7.55;;;19.70;99.90;;;;;;4965394;28;20491;-47
2022/08/26 05:53:19;;;;;;;8.30;7.50;;;19.80;99.90;;;;;;4967449;28;20034;-51
2022/08/26 05:55:48;;;;;;;10.68;8.07;;;19.80;99.90;;;;;;4970506;28;20031;-48
2022/08/26 05:58:15;;;;;;;9.88;7.95;;;19.90;99.90;;;;;;4965860;28;20043;-47
2022/08/26 06:00:40;;;;;;;10.20;7.70;;;19.90;99.90;;;;;;4970363;28;20042;-47
2022/08/26 06:03:07;;;;;;;9.15;7.40;;;20.00;99.90;;;;;;4963895;28;20154;-47
2022/08/26 06:05:39;;;;;;;15.65;7.88;;;20.00;99.90;;;;;;4970029;28;20101;-48
2022/08/26 06:08:13;;;;;;;10.98;8.05;;;20.10;99.90;;;;;;4964156;28;20518;-49
2022/08/26 06:10:53;;;;;;;11.65;8.68;;;20.10;99.90;;;;;;4969216;28;20118;-47
2022/08/26 06:13:22;;;;;;;13.40;7.10;;;20.10;99.90;;;;;;4964752;28;20027;-47
2022/08/26 06:15:49;;;;;;;10.10;7.00;;;20.20;99.90;;;;;;4972632;28;20029;-49
2022/08/26 06:18:19;;;;;;;14.48;8.38;;;20.30;99.90;;;;;;4963952;28;20403;-47
2022/08/26 06:20:46;;;;;;;11.98;8.50;;;20.30;99.90;;;;;;4971233;28;20499;-48
2022/08/26 06:25:59;;;;;;;11.45;7.80;;;20.50;99.90;;;;;;4972780;28;20037;-49
2022/08/26 06:28:25;;;;;;;9.23;8.23;;;20.60;99.90;;;;;;4969735;28;20097;-47
2022/08/26 06:30:52;;;;;;;10.25;7.30;;;20.60;99.90;;;;;;4971730;28;20037;-53
2022/08/26 06:33:18;;;;;;;12.68;7.55;;;20.70;99.90;;;;;;4968795;28;20058;-47
2022/08/26 06:35:45;;;;;;;12.25;7.38;;;20.80;99.90;;;;;;4970856;28;20034;-48
2022/08/26 06:38:12;;;;;;;11.35;7.75;;;20.80;99.90;;;;;;4966369;28;20038;-48
2022/08/26 06:40:50;;;;;;;11.93;6.45;;;20.90;99.90;;;;;;4970221;28;20034;-47
2022/08/26 06:43:18;;;;;;;8.50;7.13;;;20.90;99.90;;;;;;4987014;28;20023;-49
2022/08/26 06:45:44;;;;;;;11.05;7.25;;;20.90;99.90;;;;;;4968934;28;20030;-48
2022/08/26 06:48:16;;;;;;;11.43;7.32;;;20.90;99.90;;;;;;4985930;28;20110;-49
2022/08/26 06:50:42;;;;;;;8.18;6.57;;;20.90;99.90;;;;;;4968221;28;20029;-50
2022/08/26 06:53:09;;;;;;;8.15;6.97;;;20.90;99.90;;;;;;4969758;28;20093;-51
2022/08/26 06:55:40;;;;;;;8.93;7.07;;;21.00;99.90;;;;;;4973007;28;20019;-47
2022/08/26 06:58:06;;;;;;;8.93;6.47;;;20.90;99.90;;;;;;4982928;28;20114;-47
2022/08/26 07:00:32;;;;;;;7.60;6.15;;;21.00;99.90;;;;;;4971880;28;20023;-50
2022/08/26 07:02:57;;;;;;;9.82;7.15;;;21.00;99.90;;;;;;4965813;28;20034;-49
2022/08/26 07:05:24;;;;;;;8.38;6.93;;;21.00;99.90;;;;;;4970670;28;20018;-49
2022/08/26 07:07:51;;;;;;;11.85;8.25;;;21.10;99.90;;;;;;4967814;28;20102;-49
2022/08/26 07:10:17;;;;;;;13.02;7.78;;;21.30;99.90;;;;;;4970227;28;20393;-48
2022/08/26 07:12:43;;;;;;;12.85;6.95;;;21.60;99.90;;;;;;4971279;28;20379;-52
2022/08/26 07:15:10;;;;;;;10.85;6.97;;;21.80;99.90;;;;;;4982736;28;20062;-49
2022/08/26 07:17:36;;;;;;;13.18;7.53;;;22.00;99.90;;;;;;4971171;28;20026;-48
2022/08/26 07:20:05;;;;;;;10.98;6.97;;;22.10;99.90;;;;;;4980915;28;20023;-50
2022/08/26 07:22:31;;;;;;;9.82;7.53;;;22.20;99.90;;;;;;4964351;28;20313;-50
2022/08/26 07:24:56;;;;;;;9.18;7.10;;;22.40;99.90;;;;;;4971195;28;20162;-49
2022/08/26 07:27:22;;;;;;;10.38;6.88;;;22.60;99.90;;;;;;4967885;28;20388;-47
2022/08/26 07:29:48;;;;;;;11.00;7.28;;;22.80;99.90;;;;;;4970391;28;20415;-48
2022/08/26 07:32:14;;;;;;;8.27;6.43;;;23.10;99.90;;;;;;4968482;28;20024;-49
2022/08/26 07:34:41;;;;;;;11.52;7.10;;;23.30;99.90;;;;;;4967642;28;20033;-48
2022/08/26 07:37:07;;;;;;;8.75;6.55;;;23.50;99.90;;;;;;4970304;28;20085;-48
2022/08/26 07:39:32;;;;;;;8.57;6.93;;;23.70;99.90;;;;;;4978833;28;20022;-52
2022/08/26 07:42:00;;;;;;;11.20;6.95;;;23.90;99.90;;;;;;4969225;28;20034;-49
2022/08/26 07:44:26;;;;;;;9.77;6.55;;;24.10;99.90;;;;;;4967799;28;20391;-47
2022/08/26 07:46:52;;;;;;;7.57;6.43;;;24.20;99.90;;;;;;4970743;28;20402;-48
2022/08/26 07:49:18;;;;;;;9.25;6.85;;;24.20;99.90;;;;;;4968004;28;20018;-50
2022/08/26 07:51:44;;;;;;;9.48;6.72;;;24.20;99.90;;;;;;4982562;28;20030;-48
2022/08/26 07:54:10;;;;;;;9.93;6.53;;;24.20;99.90;;;;;;4971627;28;20019;-49
2022/08/26 07:56:35;;;;;;;9.65;6.95;;;24.30;99.90;;;;;;4967968;28;20023;-48
2022/08/26 07:59:01;;;;;;;10.48;6.30;;;24.30;99.90;;;;;;4970689;28;20039;-51
2022/08/26 08:01:30;;;;;;;19.83;6.88;;;24.50;99.90;;;;;;4967191;28;20165;-52
2022/08/26 08:03:56;;;;;;;10.38;6.65;;;24.60;99.90;;;;;;4968493;28;20443;-52
2022/08/26 08:06:24;;;;;;;35.53;9.48;;;24.70;99.90;;;;;;4967108;28;20102;-52
2022/08/26 08:08:50;;;;;;;14.88;7.43;;;24.80;99.90;;;;;;4968311;28;20031;-50
2022/08/26 08:11:19;;;;;;;16.27;6.78;;;24.80;99.90;;;;;;4971239;28;20379;-49
2022/08/26 08:13:44;;;;;;;7.43;6.57;;;24.90;99.90;;;;;;4967983;28;20526;-48
2022/08/26 08:16:10;;;;;;;8.13;6.80;;;24.90;99.90;;;;;;4970416;28;20069;-50
2022/08/26 08:18:36;;;;;;;11.32;6.57;;;25.00;99.90;;;;;;4967265;28;20027;-49
2022/08/26 08:21:02;;;;;;;11.23;6.85;;;25.10;99.90;;;;;;4970251;28;20026;-48
2022/08/26 08:23:29;;;;;;;7.93;5.43;;;25.20;99.90;;;;;;4967647;28;20057;-52
2022/08/26 08:26:08;;;;;;;15.45;6.30;;;25.40;99.90;;;;;;4968174;28;20126;-50
2022/08/26 08:28:35;;;;;;;12.15;6.28;;;25.50;99.90;;;;;;4955974;28;20364;-49
2022/08/26 08:31:01;;;;;;;12.80;6.35;;;25.70;99.90;;;;;;4960606;28;20066;-49
2022/08/26 08:33:29;;;;;;;12.05;5.97;;;25.90;99.90;;;;;;4977912;28;20073;-52
2022/08/26 08:35:56;;;;;;;11.88;6.22;;;26.10;99.90;;;;;;4959867;28;20039;-49
2022/08/26 08:38:21;;;;;;;11.02;5.85;;;26.30;99.90;;;;;;4959883;28;20034;-47
2022/08/26 08:40:47;;;;;;;8.35;5.50;;;26.40;99.90;;;;;;4959729;28;20031;-48
2022/08/26 08:43:40;;;;;;;13.07;6.78;;;26.40;99.90;;;;;;4959074;28;20026;-50
2022/08/26 08:46:13;;;;;;;15.38;6.70;;;26.20;99.90;;;;;;4955851;28;20471;-52
2022/08/26 08:48:46;;;;;;;15.32;6.75;;;26.10;99.90;;;;;;4957757;28;20078;-51
2022/08/26 08:51:21;;;;;;;10.40;5.82;;;26.00;99.90;;;;;;4962152;28;20129;-48
2022/08/26 08:53:49;;;;;;;11.20;6.70;;;25.90;99.90;;;;;;4956005;28;20034;-48
2022/08/26 08:56:39;;;;;;;8.68;5.88;;;25.90;99.90;;;;;;4958375;28;20630;-51
2022/08/26 08:59:13;;;;;;;8.18;5.53;;;26.00;99.90;;;;;;4961065;28;20716;-50
2022/08/26 09:01:50;;;;;;;11.77;6.18;;;25.90;99.90;;;;;;4960118;28;20050;-48
2022/08/26 09:04:31;;;;;;;14.30;7.15;;;25.80;99.90;;;;;;4959635;28;20023;-52
2022/08/26 09:06:59;;;;;;;12.82;6.57;;;25.80;99.90;;;;;;4960266;28;20300;-49
2022/08/26 09:09:36;;;;;;;12.73;6.45;;;25.90;99.90;;;;;;4974411;28;20047;-48
2022/08/26 09:12:03;;;;;;;13.38;6.22;;;25.80;99.90;;;;;;4959217;28;20027;-51
2022/08/26 09:14:30;;;;;;;9.95;6.40;;;25.80;99.90;;;;;;4959514;28;20065;-52
2022/08/26 09:17:40;;;;;;;9.40;5.78;;;25.80;99.90;;;;;;4975611;28;20039;-51
2022/08/26 09:20:21;;;;;;;17.77;6.90;;;25.80;99.90;;;;;;4902490;29;20536;-50
2022/08/26 09:22:47;;;;;;;13.43;7.82;;;25.80;99.90;;;;;;4905435;29;20039;-48
2022/08/26 09:25:14;;;;;;;9.02;6.45;;;25.80;99.90;;;;;;4931981;28;20027;-47
2022/08/26 09:27:50;;;;;;;11.13;6.38;;;25.80;99.90;;;;;;4961312;28;20023;-50
2022/08/26 09:30:36;;;;;;;9.95;6.05;;;25.80;99.90;;;;;;4957445;28;20085;-52
2022/08/26 09:33:08;;;;;;;12.65;6.82;;;25.90;99.90;;;;;;4967555;28;20515;-47
2022/08/26 09:35:36;;;;;;;13.75;7.53;;;25.90;99.90;;;;;;4958424;28;20046;-51
2022/08/26 09:38:18;;;;;;;8.68;5.93;;;25.90;99.90;;;;;;4960269;28;20483;-48
2022/08/26 09:41:05;;;;;;;10.95;6.75;;;25.80;99.90;;;;;;4960743;28;20440;-49
2022/08/26 09:43:31;;;;;;;9.43;6.30;;;25.70;99.90;;;;;;4962375;28;20033;-49
2022/08/26 09:46:26;;;;;;;21.27;7.45;;;25.70;99.90;;;;;;4964257;28;20029;-48
2022/08/26 09:48:51;;;;;;;10.90;6.57;;;25.70;99.90;;;;;;4961363;28;20046;-46
2022/08/26 09:51:23;;;;;;;10.90;7.03;;;25.70;99.90;;;;;;4985141;28;20027;-46
2022/08/26 09:53:56;;;;;;;16.60;6.97;;;25.70;99.90;;;;;;4963002;28;20023;-52
2022/08/26 09:56:30;;;;;;;14.65;7.53;;;25.70;99.90;;;;;;4966287;28;20019;-46
2022/08/26 09:58:57;;;;;;;14.05;6.32;;;25.70;99.90;;;;;;4960209;28;20051;-51
2022/08/26 10:01:22;;;;;;;9.07;6.55;;;25.70;99.90;;;;;;4965982;28;20022;-48
2022/08/26 10:03:48;;;;;;;6.93;6.07;;;25.70;99.90;;;;;;4959919;28;20015;-47
2022/08/26 10:06:17;;;;;;;9.05;6.75;;;25.70;99.90;;;;;;4960006;28;20027;-49
2022/08/26 10:08:56;;;;;;;9.50;6.35;;;25.70;99.90;;;;;;4959522;28;20031;-48
2022/08/26 10:11:37;;;;;;;7.13;6.43;;;25.70;99.90;;;;;;4961711;28;20491;-48
2022/08/26 10:14:14;;;;;;;6.97;6.07;;;25.70;99.90;;;;;;4963764;28;20140;-51
2022/08/26 10:17:01;;;;;;;8.60;7.13;;;25.80;99.90;;;;;;4963191;28;20438;-48
2022/08/26 10:19:39;;;;;;;8.52;6.43;;;25.80;99.90;;;;;;4962617;28;20039;-50
2022/08/26 10:22:14;;;;;;;10.75;6.53;;;25.90;99.90;;;;;;4969790;28;20348;-49
2022/08/26 10:24:56;;;;;;;8.10;6.05;;;26.00;99.90;;;;;;4962562;28;20110;-53
2022/08/26 10:27:31;;;;;;;9.48;6.68;;;26.10;99.90;;;;;;4957393;28;20396;-50
2022/08/26 10:30:04;;;;;;;8.77;6.30;;;26.20;99.90;;;;;;4963335;28;20424;-47
2022/08/26 10:32:35;;;;;;;11.43;6.78;;;26.40;99.90;;;;;;4961874;28;20023;-52
2022/08/26 10:35:02;;;;;;;9.98;7.60;;;26.50;99.90;;;;;;4963415;28;20031;-49
2022/08/26 10:37:50;;;;;;;10.57;6.82;;;26.60;99.90;;;;;;4964782;28;20045;-52
2022/08/26 10:40:26;;;;;;;9.80;6.68;;;26.70;99.90;;;;;;4962206;28;20058;-48
2022/08/26 10:43:15;;;;;;;13.07;7.28;;;26.90;99.90;;;;;;4964002;28;20037;-47
2022/08/26 10:45:55;;;;;;;7.88;7.00;;;26.90;99.90;;;;;;4961084;28;20026;-48
2022/08/26 10:48:32;;;;;;;10.60;6.97;;;27.10;99.90;;;;;;4962321;28;20024;-47
2022/08/26 10:51:01;;;;;;;12.20;7.60;;;27.20;99.90;;;;;;4970097;28;20569;-50
2022/08/26 10:54:02;;;;;;;8.55;6.78;;;27.20;99.90;;;;;;4960995;28;20142;-49
2022/08/26 10:56:53;;;;;;;7.78;6.18;;;27.40;99.90;;;;;;4964315;28;20098;-48
2022/08/26 10:59:46;;;;;;;12.15;6.95;;;27.60;99.90;;;;;;4956365;28;20526;-51
2022/08/26 11:02:32;;;;;;;9.52;6.78;;;27.80;99.90;;;;;;4961875;28;20027;-54
2022/08/26 11:05:04;;;;;;;14.50;6.97;;;27.90;99.90;;;;;;4982130;28;20030;-53
2022/08/26 11:07:40;;;;;;;11.30;6.60;;;28.00;99.90;;;;;;4965421;28;20266;-53
2022/08/26 11:10:17;;;;;;;10.38;6.70;;;28.00;99.90;;;;;;4976931;28;20042;-52
2022/08/26 11:12:44;;;;;;;15.65;6.75;;;28.00;99.90;;;;;;4960989;28;20024;-49
2022/08/26 11:15:29;;;;;;;16.08;6.72;;;28.10;99.90;;;;;;4977734;28;20059;-52
2022/08/26 11:17:57;;;;;;;;;;;28.10;99.90;;;;;;4947035;28;20083;-50
2022/08/26 11:20:35;;;;;;;14.82;7.63;;;28.20;99.90;;;;;;4959976;28;19907;-54
2022/08/26 11:23:13;;;;;;;11.40;6.38;;;28.30;99.90;;;;;;4962633;28;20030;-49
2022/08/26 11:26:00;;;;;;;9.93;6.93;;;28.40;99.90;;;;;;4961297;28;20030;-49
2022/08/26 11:28:47;;;;;;;10.20;6.43;;;28.50;99.90;;;;;;4960938;28;20031;-48
2022/08/26 11:31:24;;;;;;;9.60;6.05;;;28.60;99.90;;;;;;4975912;28;20499;-52
2022/08/26 11:33:56;;;;;;;10.20;6.40;;;28.70;99.90;;;;;;4962720;28;20058;-49
2022/08/26 11:36:40;;;;;;;11.10;6.75;;;28.80;99.90;;;;;;4978496;23;20047;-59
2022/08/26 11:39:28;;;;;;;15.55;7.38;;;28.90;99.90;;;;;;4977462;28;20031;-60
2022/08/26 11:42:14;;;;;;;19.02;7.13;;;28.90;99.90;;;;;;4958778;28;20034;-58
2022/08/26 11:44:42;;;;;;;;;;;28.90;99.90;;;;;;4973151;28;20054;-59
2022/08/26 11:47:10;;;;;;;10.32;6.50;;;28.90;99.90;;;;;;4937914;28;19917;-60
2022/08/26 11:49:36;;;;;;;17.40;7.03;;;28.90;99.90;;;;;;4946147;28;20371;-57
2022/08/26 11:52:13;;;;;;;7.55;6.72;;;28.90;99.90;;;;;;4963976;28;20031;-60
2022/08/26 11:54:39;;;;;;;10.50;6.82;;;29.10;99.90;;;;;;4964776;28;20025;-56
2022/08/26 11:57:07;;;;;;;13.70;7.85;;;29.10;99.90;;;;;;4945216;28;20043;-60
2022/08/26 11:59:37;;;;;;;9.05;7.00;;;29.10;99.90;;;;;;4955536;28;20077;-59
2022/08/26 12:02:09;;;;;;;7.93;6.68;;;29.00;99.90;;;;;;4962655;28;20030;-59
2022/08/26 12:04:40;;;;;;;10.60;6.45;;;29.10;99.90;;;;;;4959996;28;20042;-59
2022/08/26 12:07:07;;;;;;;6.95;5.32;;;29.20;99.90;;;;;;4962165;28;20023;-59
2022/08/26 12:09:36;;;;;;;14.65;6.55;;;29.20;99.90;;;;;;4959266;28;20035;-59
2022/08/26 12:12:37;;;;;;;10.35;6.43;;;29.30;99.90;;;;;;4962660;28;20073;-58
2022/08/26 12:15:16;;;;;;;17.67;7.00;;;29.30;99.90;;;;;;4945783;28;20154;-59
2022/08/26 12:17:43;;;;;;;10.35;6.22;;;29.40;99.90;;;;;;4961013;28;20574;-61
2022/08/26 12:20:44;;;;;;;13.95;6.90;;;29.50;99.90;;;;;;4938934;28;20352;-59
2022/08/26 12:23:23;;;;;;;8.73;6.85;;;29.50;99.90;;;;;;4959143;28;20502;-57
2022/08/26 12:25:52;;;;;;;15.18;6.43;;;29.40;99.90;;;;;;4956071;28;20027;-59
2022/08/26 12:28:20;;;;;;;10.20;6.53;;;29.30;99.90;;;;;;4946228;28;20439;-59
2022/08/26 12:31:03;;;;;;;8.90;6.40;;;29.30;99.90;;;;;;4963890;28;20046;-59
2022/08/26 12:33:30;;;;;;;40.38;9.73;;;29.50;99.90;;;;;;4960036;28;20142;-60
2022/08/26 12:35:57;;;;;;;11.90;7.00;;;29.50;99.90;;;;;;4948060;28;20035;-59
2022/08/26 12:38:24;;;;;;;9.00;6.82;;;29.40;99.90;;;;;;4960663;28;20020;-59
2022/08/26 12:40:50;;;;;;;10.70;6.47;;;29.30;99.90;;;;;;4962817;28;20027;-58
2022/08/26 12:43:44;;;;;;;12.40;6.50;;;29.20;99.90;;;;;;4960097;28;20015;-60
2022/08/26 12:46:16;;;;;;;13.73;6.68;;;29.20;99.90;;;;;;4961618;28;20011;-58
2022/08/26 12:48:47;;;;;;;11.77;6.65;;;29.10;99.90;;;;;;4960330;28;20102;-58
2022/08/26 12:51:25;;;;;;;13.60;6.85;;;29.00;99.90;;;;;;4960096;28;20015;-59
2022/08/26 12:53:52;;;;;;;13.60;6.60;;;29.10;99.90;;;;;;4951447;28;20035;-58
2022/08/26 12:56:36;;;;;;;11.23;6.10;;;29.10;99.90;;;;;;4946268;28;20151;-58
2022/08/26 12:59:06;;;;;;;8.68;6.35;;;29.20;99.90;;;;;;4957554;28;20677;-57
2022/08/26 13:01:42;;;;;;;14.02;7.43;;;29.40;99.90;;;;;;4963187;28;20018;-57